Flight Track Log - Related Links

Times and Time Zones

All times are in EDT time to prevent confusion due to time zone crossing. See the AAL1459 flight status page for this flight to view local times or setup timezone preferences in your user account.

Time Position Orientation Groundspeed Altitude Reporting Facility
EDT Latitude Longitude Course Direction KTS MPH feet Rate Location/Type
Tue 08:02:49 PM 42.0025 -87.9478 270° West 182 209 2,000  Level Chicago Center
Tue 08:03:42 PM 42.0500 -87.9833 331° Northwest 221 254 3,700 2,677 Climbing Chicago TRACON
Tue 08:05:00 PM 41.9667 -88.3923 270° West  Level FlightAware Approximate
Tue 08:05:55 PM 42.1419 -88.1486 307° West 292 336 10,300  Level Chicago Center
Tue 08:06:00 PM 41.9668 -88.5564 270° West  Level FlightAware Approximate
Tue 08:06:57 PM 42.1383 -88.2644 268° West 310 357 11,900  Level Chicago Center
Tue 08:07:00 PM 41.9667 -88.7206 270° West  Level FlightAware Approximate
Tue 08:07:59 PM 42.1331 -88.4017 267° West 362 417 14,700  Level Chicago Center
Tue 08:08:00 PM 41.9668 -88.8770 270° West  Level FlightAware Approximate
Tue 08:09:01 PM 42.1286 -88.5383 268° West 370 426 17,100  Level Chicago Center
Tue 08:10:03 PM 42.1244 -88.6831 268° West 385 443 19,300 2,274 Climbing Chicago Center
Tue 08:11:05 PM 42.1183 -88.8594 267° West 402 463 21,800 2,129 Climbing Chicago Center
Tue 08:12:07 PM 42.1133 -89.0169 268° West 414 476 23,700 1,790 Climbing Chicago Center
Tue 08:13:09 PM 42.1086 -89.1756 268° West 419 482 25,500 1,548 Climbing Chicago Center
Tue 08:14:11 PM 42.1053 -89.3417 269° West 437 503 26,900 1,355 Climbing Chicago Center
Tue 08:15:13 PM 42.1008 -89.5086 268° West 443 510 28,300 1,452 Climbing Chicago Center
Tue 08:16:15 PM 42.1008 -89.7106 270° West 458 527 29,900 1,536 Climbing Chicago Center
Tue 08:17:18 PM 42.1011 -89.8797 270° West 453 521 31,500 1,296 Climbing Chicago Center
Tue 08:18:20 PM 42.1000 -90.0231 269° West 449 517 32,600 1,226 Climbing Chicago Center
Tue 08:20:24 PM 42.1297 -90.3894 276° West 455 524 35,300 1,097 Climbing Chicago Center
Tue 08:21:26 PM 42.1528 -90.5494 281° West 443 510 36,000 339 Climbing Chicago Center
Tue 08:22:28 PM 42.1758 -90.7136 281° West 448 516 36,000  Level Chicago Center
Tue 08:23:30 PM 42.1964 -90.8792 280° West 453 521 36,000  Level Chicago Center
Tue 08:24:32 PM 42.2250 -91.0722 281° West 445 512 36,000  Level Chicago Center
Tue 08:25:34 PM 42.2464 -91.2364 280° West 445 512 36,000  Level Chicago Center
Tue 08:26:36 PM 42.2672 -91.3947 280° West 437 503 36,000  Level Chicago Center
Tue 08:27:38 PM 42.2883 -91.5536 280° West 432 497 36,000  Level Chicago Center
Tue 08:28:40 PM 42.3075 -91.7086 280° West 425 489 36,000  Level Chicago Center
Tue 08:29:42 PM 42.3319 -91.8936 280° West 420 483 36,000  Level Chicago Center
Tue 08:30:44 PM 42.3514 -92.0461 280° West 417 480 36,000  Level Chicago Center
Tue 08:31:39 PM 42.3661 -92.1736 279° West 418 481 36,000  Level Minneapolis Center
Tue 08:32:41 PM 42.3864 -92.3303 280° West 422 486 36,000  Level Minneapolis Center
Tue 08:33:43 PM 42.4097 -92.5206 279° West 427 491 36,000  Level Minneapolis Center
Tue 08:34:45 PM 42.4281 -92.6772 279° West 427 491 36,000  Level Minneapolis Center
Tue 08:35:47 PM 42.4478 -92.8347 280° West 428 493 36,000  Level Minneapolis Center
Tue 08:36:49 PM 42.4664 -92.9964 279° West 430 495 36,000  Level Minneapolis Center
Tue 08:37:51 PM 42.4847 -93.1536 279° West 432 497 36,000  Level Minneapolis Center
Tue 08:38:53 PM 42.5064 -93.3439 279° West 431 496 36,000  Level Minneapolis Center
Tue 08:39:56 PM 42.5253 -93.5042 279° West 432 497 36,000  Level Minneapolis Center
Tue 08:40:58 PM 42.5431 -93.6644 279° West 434 499 36,000  Level Minneapolis Center
Tue 08:42:00 PM 42.5608 -93.8231 279° West 431 496 36,000  Level Minneapolis Center
Tue 08:43:02 PM 42.5783 -93.9858 278° West 437 503 36,000  Level Minneapolis Center
Tue 08:44:04 PM 42.5986 -94.1761 278° West 430 495 36,000  Level Minneapolis Center
Tue 08:45:06 PM 42.6131 -94.3378 277° West 436 502 36,000  Level Minneapolis Center
Tue 08:46:08 PM 42.6083 -94.4992 268° West 434 499 36,000  Level Minneapolis Center
Tue 08:47:10 PM 42.6056 -94.6706 269° West 424 488 36,000  Level Minneapolis Center
Tue 08:48:12 PM 42.6036 -94.8328 269° West 429 494 36,000  Level Minneapolis Center
Tue 08:49:14 PM 42.6003 -94.9936 268° West 428 493 36,000  Level Minneapolis Center
Tue 08:50:16 PM 42.5981 -95.1522 269° West 424 488 36,000  Level Minneapolis Center
Tue 08:51:18 PM 42.5933 -95.3419 268° West 421 484 36,000  Level Minneapolis Center
Tue 08:52:20 PM 42.5903 -95.5006 269° West 421 484 36,000  Level Minneapolis Center
Tue 08:53:22 PM 42.5850 -95.6564 267° West 417 480 36,000  Level Minneapolis Center
Tue 08:54:24 PM 42.5819 -95.8094 268° West 410 472 36,000  Level Minneapolis Center
Tue 08:55:27 PM 42.5772 -95.9650 268° West 413 475 36,000  Level Minneapolis Center
Tue 08:56:29 PM 42.5725 -96.1517 268° West 415 478 36,000  Level Minneapolis Center
Tue 08:57:31 PM 42.5678 -96.3067 268° West 413 475 36,000  Level Minneapolis Center
Tue 08:58:33 PM 42.5633 -96.4636 268° West 416 479 36,000  Level Minneapolis Center
Tue 08:59:35 PM 42.5572 -96.6206 267° West 418 481 36,000  Level Minneapolis Center
Tue 09:00:39 PM 42.5525 -96.7767 268° West 417 480 36,000  Level Minneapolis Center
Tue 09:01:41 PM 42.5453 -96.9644 267° West 418 481 36,000  Level Minneapolis Center
Tue 09:02:43 PM 42.5400 -97.1247 267° West 422 486 36,000  Level Minneapolis Center
Tue 09:03:45 PM 42.5336 -97.2825 267° West 423 487 36,000  Level Minneapolis Center
Tue 09:04:47 PM 42.5278 -97.4419 267° West 425 489 36,000  Level Minneapolis Center
Tue 09:05:49 PM 42.5214 -97.5989 267° West 421 484 36,000  Level Minneapolis Center
Tue 09:06:51 PM 42.5144 -97.7581 267° West 424 488 36,000  Level Minneapolis Center
Tue 09:07:53 PM 42.5069 -97.9389 267° West 422 486 36,000  Level Minneapolis Center
Tue 09:08:55 PM 42.4986 -98.0975 266° West 422 486 36,000  Level Minneapolis Center
Tue 09:09:58 PM 42.4914 -98.2567 267° West 424 488 36,000  Level Minneapolis Center
Tue 09:11:00 PM 42.4842 -98.4164 267° West 426 490 36,000  Level Minneapolis Center
Tue 09:12:02 PM 42.4747 -98.6067 266° West 424 488 36,000  Level Minneapolis Center
Tue 09:13:04 PM 42.4628 -98.7622 264° West 421 484 36,000  Level Minneapolis Center
Tue 09:14:06 PM 42.4472 -98.9189 262° West 420 483 36,000  Level Minneapolis Center
Tue 09:15:08 PM 42.4322 -99.0758 263° West 422 486 36,000  Level Minneapolis Center
Tue 09:16:10 PM 42.4150 -99.2289 261° West 416 479 36,000  Level Minneapolis Center
Tue 09:17:06 PM 42.3997 -99.3850 263° West 420 483 36,000  Level Denver Center
Tue 09:18:08 PM 42.3833 -99.5392 262° West 416 479 36,000  Level Denver Center
Tue 09:19:09 PM 42.3653 -99.7011 261° West 413 475 36,000  Level Denver Center
Tue 09:20:11 PM 42.3478 -99.8747 262° West 418 481 36,000  Level Denver Center
Tue 09:21:12 PM 42.3303 -100.0219 261° West 418 481 36,000  Level Denver Center
Tue 09:22:14 PM 42.3142 -100.1697 262° West 417 480 36,000  Level Denver Center
Tue 09:23:15 PM 42.2953 -100.3433 262° West 418 481 36,000  Level Denver Center
Tue 09:24:17 PM 42.2775 -100.4922 261° West 419 482 36,000 390 Level Denver Center
Tue 09:25:18 PM 42.2578 -100.6678 261° West 422 486 36,800 683 Climbing Denver Center
Tue 09:26:20 PM 42.2406 -100.8125 261° West 412 474 37,400 488 Climbing Denver Center
Tue 09:27:21 PM 42.2208 -100.9881 261° West 424 488 37,800 267 Climbing Denver Center
Tue 09:28:35 PM 42.2017 -101.1406 260° West 431 496 38,000 88 Climbing Denver Center
Tue 09:29:37 PM 42.1772 -101.3431 261° West 428 493 38,000  Level Denver Center
Tue 09:30:38 PM 42.1592 -101.4925 261° West 423 487 38,000  Level Denver Center
Tue 09:31:52 PM 42.1342 -101.6900 260° West 419 482 38,000  Level Denver Center
Tue 09:32:53 PM 42.1156 -101.8364 260° West 416 479 38,000  Level Denver Center
Tue 09:34:07 PM 42.0939 -102.0083 260° West 418 481 38,000  Level Denver Center
Tue 09:35:09 PM 42.0878 -102.1825 267° West 418 481 38,000  Level Denver Center
Tue 09:36:10 PM 42.0803 -102.3517 267° West 417 480 38,000  Level Denver Center
Tue 09:37:24 PM 42.0753 -102.5025 267° West 421 484 38,000  Level Denver Center
Tue 09:38:26 PM 42.0656 -102.7042 266° West 422 486 38,000  Level Denver Center
Tue 09:39:27 PM 42.0619 -102.8319 268° West 427 491 38,000  Level Denver Center
Tue 09:40:29 PM 42.0528 -103.0403 267° West 437 503 38,000  Level Denver Center
Tue 09:41:31 PM 42.0461 -103.1983 267° West 440 506 38,000  Level Denver Center
Tue 09:42:32 PM 42.0361 -103.3828 266° West 442 509 38,000  Level Denver Center
Tue 09:43:34 PM 42.0283 -103.5389 266° West 438 504 38,000  Level Denver Center
Tue 09:44:36 PM 42.0194 -103.7183 266° West 430 495 38,000  Level Denver Center
Tue 09:45:37 PM 42.0119 -103.8714 266° West 428 493 38,000  Level Denver Center
Tue 09:46:39 PM 42.0044 -103.9972 265° West 424 488 38,000  Level Denver Center
Tue 09:47:41 PM 41.9939 -104.2006 266° West 425 489 38,000  Level Denver Center
Tue 09:48:42 PM 41.9864 -104.3269 265° West 424 488 38,000  Level Denver Center
Tue 09:49:44 PM 41.9756 -104.5322 266° West 428 493 38,000  Level Denver Center
Tue 09:50:45 PM 41.9719 -104.6869 268° West 431 496 38,000  Level Denver Center
Tue 09:51:47 PM 41.9689 -104.8156 268° West 431 496 38,000  Level Denver Center
Tue 09:52:48 PM 41.9631 -105.0225 268° West 432 497 38,000  Level Denver Center
Tue 09:53:50 PM 41.9583 -105.1517 267° West 433 498 38,000  Level Denver Center
Tue 09:54:52 PM 41.9522 -105.3600 268° West 435 501 38,000  Level Denver Center
Tue 09:55:53 PM 41.9478 -105.5150 268° West 434 499 38,000  Level Denver Center
Tue 09:56:55 PM 41.9408 -105.6725 267° West 440 506 38,000  Level Denver Center
Tue 09:57:56 PM 41.9344 -105.8578 267° West 444 511 38,000  Level Denver Center
Tue 09:58:58 PM 41.9292 -106.0181 268° West 448 516 38,000  Level Denver Center
Tue 10:00:00 PM 41.9214 -106.2058 267° West 450 518 38,000  Level Denver Center
Tue 10:01:01 PM 41.9158 -106.3686 267° West 455 524 38,000  Level Denver Center
Tue 10:02:03 PM 41.9081 -106.5533 267° West 455 524 38,000  Level Denver Center
Tue 10:03:04 PM 41.9011 -106.7150 267° West 454 522 38,000  Level Denver Center
Tue 10:04:06 PM 41.8928 -106.8761 266° West 453 521 38,000  Level Denver Center
Tue 10:05:07 PM 41.8861 -107.0672 267° West 459 528 38,000  Level Denver Center
Tue 10:06:09 PM 41.8772 -107.2308 266° West 459 528 38,000  Level Denver Center
Tue 10:07:10 PM 41.8672 -107.4211 266° West 460 529 38,000  Level Denver Center
Tue 10:08:12 PM 41.8597 -107.5858 267° West 462 532 38,000  Level Denver Center
Tue 10:09:13 PM 41.8489 -107.7756 266° West 458 527 38,000  Level Denver Center
Tue 10:10:15 PM 41.8408 -107.9389 266° West 461 531 38,000  Level Denver Center
Tue 10:11:17 PM 41.8314 -108.1025 266° West 461 531 38,000  Level Denver Center
Tue 10:11:49 PM 41.8244 -108.2106 265° West 458 527 38,000  Level Salt Lake Center
Tue 10:12:50 PM 41.8150 -108.3736 266° West 460 529 38,000  Level Salt Lake Center
Tue 10:13:51 PM 41.8042 -108.5650 266° West 461 531 38,000  Level Salt Lake Center
Tue 10:14:52 PM 41.7950 -108.7253 266° West 456 525 38,000  Level Salt Lake Center
Tue 10:15:54 PM 41.7842 -108.8872 265° West 459 528 38,000  Level Salt Lake Center
Tue 10:16:55 PM 41.7719 -109.0736 265° West 456 525 38,000  Level Salt Lake Center
Tue 10:17:56 PM 41.7628 -109.2347 266° West 457 526 38,000  Level Salt Lake Center
Tue 10:18:58 PM 41.7492 -109.4231 265° West 460 529 38,000  Level Salt Lake Center
Tue 10:19:59 PM 41.7378 -109.5856 265° West 461 531 38,000  Level Salt Lake Center
Tue 10:21:00 PM 41.7247 -109.7767 265° West 463 533 38,000  Level Salt Lake Center
Tue 10:22:02 PM 41.7131 -109.9408 265° West 464 534 38,000  Level Salt Lake Center
Tue 10:23:03 PM 41.7000 -110.1044 264° West 463 533 38,000  Level Salt Lake Center
Tue 10:24:04 PM 41.6861 -110.2975 265° West 467 537 38,000  Level Salt Lake Center
Tue 10:25:06 PM 41.6742 -110.4619 264° West 466 536 38,000  Level Salt Lake Center
Tue 10:26:07 PM 41.6589 -110.6547 264° West 469 540 38,000  Level Salt Lake Center
Tue 10:27:08 PM 41.6464 -110.8206 264° West 469 540 38,000  Level Salt Lake Center
Tue 10:28:10 PM 41.6306 -111.0097 264° West 467 537 38,000  Level Salt Lake Center
Tue 10:29:11 PM 41.6153 -111.1819 263° West 469 540 38,000  Level Salt Lake Center
Tue 10:30:12 PM 41.6008 -111.3525 264° West 465 535 38,000  Level Salt Lake Center
Tue 10:31:14 PM 41.5867 -111.5225 264° West 466 536 38,000  Level Salt Lake Center
Tue 10:32:15 PM 41.5714 -111.6936 263° West 468 539 38,000  Level Salt Lake Center
Tue 10:33:17 PM 41.5558 -111.8642 263° West 468 539 38,000  Level Salt Lake Center
Tue 10:34:18 PM 41.5414 -112.0350 264° West 468 539 38,000  Level Salt Lake Center
Tue 10:35:19 PM 41.5228 -112.2400 263° West 469 540 38,000  Level Salt Lake Center
Tue 10:36:21 PM 41.5064 -112.4117 263° West 471 542 38,000  Level Salt Lake Center
Tue 10:37:22 PM 41.4903 -112.5839 263° West 472 543 38,000  Level Salt Lake Center
Tue 10:38:23 PM 41.4733 -112.7567 263° West 473 544 38,000  Level Salt Lake Center
Tue 10:39:25 PM 41.4417 -112.9242 256° West 469 540 38,000  Level Salt Lake Center
Tue 10:40:26 PM 41.4061 -113.0914 254° West 471 542 38,000  Level Salt Lake Center
Tue 10:41:28 PM 41.3706 -113.2606 254° West 474 545 38,000  Level Salt Lake Center
Tue 10:42:29 PM 41.3281 -113.4611 254° West 472 543 38,000  Level Salt Lake Center
Tue 10:43:30 PM 41.2939 -113.6275 255° West 468 539 38,000  Level Salt Lake Center
Tue 10:44:32 PM 41.2594 -113.7942 255° West 468 539 38,000  Level Salt Lake Center
Tue 10:45:33 PM 41.2244 -113.9608 254° West 469 540 38,000  Level Salt Lake Center
Tue 10:46:35 PM 41.1878 -114.1264 254° West 469 540 38,000  Level Salt Lake Center
Tue 10:47:36 PM 41.1511 -114.2911 254° West 468 539 38,000  Level Salt Lake Center
Tue 10:48:37 PM 41.1047 -114.4478 249° West 460 529 38,000  Level Salt Lake Center
Tue 10:49:39 PM 41.0536 -114.6031 246° West 459 528 38,000  Level Salt Lake Center
Tue 10:50:40 PM 40.9986 -114.7697 246° West 460 529 38,000  Level Salt Lake Center
Tue 10:51:41 PM 40.9406 -114.9442 246° West 461 531 38,000  Level Salt Lake Center
Tue 10:52:43 PM 40.8919 -115.0942 247° West 464 534 38,000  Level Salt Lake Center
Tue 10:53:44 PM 40.8417 -115.2458 246° West 467 537 38,000  Level Salt Lake Center
Tue 10:54:46 PM 40.7856 -115.4200 247° West 463 533 38,000  Level Salt Lake Center
Tue 10:55:47 PM 40.7361 -115.5719 247° West 467 537 38,000  Level Salt Lake Center
Tue 10:56:48 PM 40.6772 -115.7461 246° West 467 537 38,000  Level Salt Lake Center
Tue 10:57:50 PM 40.6269 -115.8958 246° West 467 537 38,000  Level Salt Lake Center
Tue 10:58:51 PM 40.5975 -116.0542 256° West 464 534 38,000  Level Salt Lake Center
Tue 10:59:52 PM 40.5661 -116.2417 258° West 469 540 38,000  Level Salt Lake Center
Tue 11:00:54 PM 40.5372 -116.4017 257° West 470 541 38,000  Level Salt Lake Center
Tue 11:01:55 PM 40.5033 -116.5878 257° West 470 541 38,000  Level Salt Lake Center
Tue 11:02:56 PM 40.4528 -116.7375 246° West 470 541 38,000  Level Salt Lake Center
Tue 11:03:58 PM 40.3944 -116.8833 242° Southwest 473 544 38,000  Level Salt Lake Center
Tue 11:04:59 PM 40.3328 -117.0453 243° Southwest 474 545 38,000  Level Salt Lake Center
Tue 11:06:00 PM 40.2658 -117.2150 243° Southwest 471 542 38,000  Level Salt Lake Center
Tue 11:07:02 PM 40.2081 -117.3589 242° Southwest 467 537 38,000 -293 Level Salt Lake Center
Tue 11:08:03 PM 40.1508 -117.5042 243° Southwest 467 537 37,400 -742 Descending Salt Lake Center
Tue 11:08:31 PM 40.1194 -117.5836 243° Southwest 469 540 36,900 -1,011 Descending Oakland Center
Tue 11:09:32 PM 40.0572 -117.7397 243° Southwest 482 555 35,900 -984 Descending Oakland Center
Tue 11:10:33 PM 39.9947 -117.8939 242° Southwest 480 552 34,900 -1,475 Descending Oakland Center
Tue 11:11:34 PM 39.9325 -118.0483 242° Southwest 482 555 32,900 -2,066 Descending Oakland Center
Tue 11:12:35 PM 39.8692 -118.2036 242° Southwest 486 559 30,700 -2,164 Descending Oakland Center
Tue 11:13:36 PM 39.8042 -118.3631 242° Southwest 497 572 28,500 -2,732 Descending Oakland Center
Tue 11:14:38 PM 39.7292 -118.5433 242° Southwest 477 549 25,100 -2,927 Descending Oakland Center
Tue 11:15:39 PM 39.6728 -118.6825 242° Southwest 445 512 22,500 -2,311 Descending Oakland Center
Tue 11:16:40 PM 39.6178 -118.8133 241° Southwest 423 487 20,400 -2,066 Descending Oakland Center
Tue 11:17:41 PM 39.5656 -118.9392 242° Southwest 407 468 18,300 -2,016 Descending Oakland Center
Tue 11:18:42 PM 39.5133 -119.0631 241° Southwest 398 458 16,300 -1,426 Descending Oakland Center
Tue 11:19:43 PM 39.4625 -119.1822 241° Southwest 383 441 15,400 -1,082 Descending Oakland Center
Tue 11:20:44 PM 39.4128 -119.3014 242° Southwest 380 437 14,100 -689 Descending Oakland Center
Tue 11:21:45 PM 39.3633 -119.4147 241° Southwest 368 423 14,000 -541 Descending Oakland Center
Tue 11:22:46 PM 39.3025 -119.5250 235° Southwest 327 376 13,000 -492 Descending Oakland Center
Tue 11:23:47 PM 39.2256 -119.5833 210° Southwest 322 371 13,000 -344 Level Oakland Center
Tue 11:24:48 PM 39.1792 -119.6600 232° Southwest 297 342 12,300 -836 Descending Oakland Center
Tue 11:25:49 PM 39.1822 -119.7433 273° West 256 295 11,300 -1,033 Descending Oakland Center
Tue 11:26:50 PM 39.2317 -119.7669 340° North 224 258 10,200 -1,082 Descending Oakland Center
Tue 11:27:51 PM 39.2803 -119.7683 359° North 193 222 9,100 -1,082 Descending Oakland Center

Login

Don't have an account? Register now (free) for customized features, flight alerts, and more!